sensor_id;sensor_type;location;lat;lon;timestamp;pressure;altitude;pressure_sealevel;temperature;humidity
21664;BME280;10993;52.510;13.456;2022-09-17T00:02:01;-26511.75;;;12.46;100.00
21664;BME280;10993;52.510;13.456;2022-09-17T00:07:03;-26514.72;;;12.56;100.00
21664;BME280;10993;52.510;13.456;2022-09-17T00:12:04;-26518.47;;;12.68;100.00
21664;BME280;10993;52.510;13.456;2022-09-17T00:17:04;-26518.66;;;12.68;100.00
21664;BME280;10993;52.510;13.456;2022-09-17T00:22:06;-26517.06;;;12.63;100.00
21664;BME280;10993;52.510;13.456;2022-09-17T00:27:06;-26515.97;;;12.60;100.00
21664;BME280;10993;52.510;13.456;2022-09-17T00:32:07;-26520.84;;;12.76;100.00
21664;BME280;10993;52.510;13.456;2022-09-17T00:37:08;-26514.72;;;12.56;100.00
21664;BME280;10993;52.510;13.456;2022-09-17T00:42:09;-26517.22;;;12.64;100.00
21664;BME280;10993;52.510;13.456;2022-09-17T00:47:18;-26516.28;;;12.61;100.00
21664;BME280;10993;52.510;13.456;2022-09-17T00:52:25;-26516.13;;;12.60;100.00
21664;BME280;10993;52.510;13.456;2022-09-17T00:57:27;-26517.53;;;12.65;100.00
21664;BME280;10993;52.510;13.456;2022-09-17T01:02:28;-26520.19;;;12.74;100.00
21664;BME280;10993;52.510;13.456;2022-09-17T01:07:41;-26522.25;;;12.80;100.00
21664;BME280;10993;52.510;13.456;2022-09-17T01:12:56;-26522.25;;;12.80;100.00
21664;BME280;10993;52.510;13.456;2022-09-17T01:18:10;-26521.63;;;12.78;100.00
21664;BME280;10993;52.510;13.456;2022-09-17T01:29:07;-26518.47;;;12.68;100.00
21664;BME280;10993;52.510;13.456;2022-09-17T01:34:19;-26521.28;;;12.77;100.00
21664;BME280;10993;52.510;13.456;2022-09-17T01:39:31;-26522.25;;;12.80;100.00
21664;BME280;10993;52.510;13.456;2022-09-17T01:44:36;-26522.25;;;12.80;100.00
21664;BME280;10993;52.510;13.456;2022-09-17T01:49:41;-26525.38;;;12.91;100.00
21664;BME280;10993;52.510;13.456;2022-09-17T01:54:45;-26528.81;;;13.02;100.00
21664;BME280;10993;52.510;13.456;2022-09-17T01:59:50;-26527.09;;;12.96;100.00
21664;BME280;10993;52.510;13.456;2022-09-17T02:04:59;-26520.38;;;12.74;100.00
21664;BME280;10993;52.510;13.456;2022-09-17T02:10:06;-26524.28;;;12.87;100.00
21664;BME280;10993;52.510;13.456;2022-09-17T02:15:14;-26512.22;;;12.47;100.00
21664;BME280;10993;52.510;13.456;2022-09-17T02:20:19;-26529.13;;;13.03;100.00
21664;BME280;10993;52.510;13.456;2022-09-17T02:25:27;-26518.66;;;12.68;100.00
21664;BME280;10993;52.510;13.456;2022-09-17T02:30:30;-26524.91;;;12.89;100.00
21664;BME280;10993;52.510;13.456;2022-09-17T02:35:32;-26528.03;;;12.99;100.00
21664;BME280;10993;52.510;13.456;2022-09-17T02:40:35;-26523.19;;;12.83;100.00
21664;BME280;10993;52.510;13.456;2022-09-17T02:45:49;-26525.69;;;12.92;100.00
21664;BME280;10993;52.510;13.456;2022-09-17T02:51:04;-26524.75;;;12.89;100.00
21664;BME280;10993;52.510;13.456;2022-09-17T02:56:17;-26529.75;;;13.05;100.00
21664;BME280;10993;52.510;13.456;2022-09-17T03:01:22;-26528.19;;;13.00;100.00
21664;BME280;10993;52.510;13.456;2022-09-17T03:06:25;-26522.25;;;12.80;100.00
21664;BME280;10993;52.510;13.456;2022-09-17T03:11:26;-26523.78;;;12.85;100.00
21664;BME280;10993;52.510;13.456;2022-09-17T03:16:26;-26531.94;;;13.12;100.00
21664;BME280;10993;52.510;13.456;2022-09-17T03:21:28;-26533.19;;;13.16;100.00
21664;BME280;10993;52.510;13.456;2022-09-17T03:26:29;-26530.53;;;13.08;100.00
21664;BME280;10993;52.510;13.456;2022-09-17T03:31:29;-26535.38;;;13.24;100.00
21664;BME280;10993;52.510;13.456;2022-09-17T03:36:31;-26533.34;;;13.17;100.00
21664;BME280;10993;52.510;13.456;2022-09-17T03:41:31;-26533.81;;;13.18;100.00
21664;BME280;10993;52.510;13.456;2022-09-17T03:46:31;-26533.34;;;13.17;100.00
21664;BME280;10993;52.510;13.456;2022-09-17T03:51:33;-26535.84;;;13.25;100.00
21664;BME280;10993;52.510;13.456;2022-09-17T03:56:33;-26528.81;;;13.02;100.00
21664;BME280;10993;52.510;13.456;2022-09-17T04:01:34;-26531.94;;;13.12;100.00
21664;BME280;10993;52.510;13.456;2022-09-17T04:06:36;-26531.78;;;13.12;100.00
21664;BME280;10993;52.510;13.456;2022-09-17T04:11:36;-26529.75;;;13.05;100.00
21664;BME280;10993;52.510;13.456;2022-09-17T04:16:37;-26532.41;;;13.14;100.00
21664;BME280;10993;52.510;13.456;2022-09-17T04:21:38;-26533.66;;;13.18;100.00
21664;BME280;10993;52.510;13.456;2022-09-17T04:26:39;-26535.06;;;13.23;100.00
21664;BME280;10993;52.510;13.456;2022-09-17T04:31:39;-26538.34;;;13.33;100.00
21664;BME280;10993;52.510;13.456;2022-09-17T04:36:41;-26539.28;;;13.36;100.00
21664;BME280;10993;52.510;13.456;2022-09-17T04:41:41;-26539.44;;;13.37;100.00
21664;BME280;10993;52.510;13.456;2022-09-17T04:46:42;-26537.25;;;13.30;100.00
21664;BME280;10993;52.510;13.456;2022-09-17T04:51:43;-26535.22;;;13.23;100.00
21664;BME280;10993;52.510;13.456;2022-09-17T04:56:44;-26531.47;;;13.11;100.00
21664;BME280;10993;52.510;13.456;2022-09-17T05:01:44;-26536.31;;;13.27;100.00
21664;BME280;10993;52.510;13.456;2022-09-17T05:06:46;-26536.31;;;13.27;100.00
21664;BME280;10993;52.510;13.456;2022-09-17T05:11:46;-26534.59;;;13.21;100.00
21664;BME280;10993;52.510;13.456;2022-09-17T05:16:47;-26536.78;;;13.28;100.00
21664;BME280;10993;52.510;13.456;2022-09-17T05:21:49;-26536.63;;;13.28;100.00
21664;BME280;10993;52.510;13.456;2022-09-17T05:26:49;-26536.00;;;13.26;100.00
21664;BME280;10993;52.510;13.456;2022-09-17T05:31:49;-26530.84;;;13.09;100.00
21664;BME280;10993;52.510;13.456;2022-09-17T05:36:51;-26541.94;;;13.45;100.00
21664;BME280;10993;52.510;13.456;2022-09-17T05:41:52;-26548.34;;;13.66;100.00
21664;BME280;10993;52.510;13.456;2022-09-17T05:46:52;-26549.91;;;13.72;100.00
21664;BME280;10993;52.510;13.456;2022-09-17T05:51:54;-26554.72;;;13.88;100.00
21664;BME280;10993;52.510;13.456;2022-09-17T05:56:55;-26557.69;;;13.97;100.00
21664;BME280;10993;52.510;13.456;2022-09-17T06:01:55;-26558.63;;;14.00;100.00
21664;BME280;10993;52.510;13.456;2022-09-17T06:06:57;-26557.84;;;13.98;100.00
21664;BME280;10993;52.510;13.456;2022-09-17T06:11:57;-26565.19;;;14.22;100.00
21664;BME280;10993;52.510;13.456;2022-09-17T06:16:57;-26565.34;;;14.23;100.00
21664;BME280;10993;52.510;13.456;2022-09-17T06:21:59;-26565.50;;;14.23;100.00
21664;BME280;10993;52.510;13.456;2022-09-17T06:27:00;-26569.56;;;14.36;100.00
21664;BME280;10993;52.510;13.456;2022-09-17T06:32:01;-26568.31;;;14.32;100.00
21664;BME280;10993;52.510;13.456;2022-09-17T06:37:03;-26574.69;;;14.53;100.00
21664;BME280;10993;52.510;13.456;2022-09-17T06:42:04;-26577.03;;;14.61;100.00
21664;BME280;10993;52.510;13.456;2022-09-17T06:47:05;-26577.03;;;14.61;100.00
21664;BME280;10993;52.510;13.456;2022-09-17T06:52:08;-26589.19;;;15.01;100.00
21664;BME280;10993;52.510;13.456;2022-09-17T06:57:08;-26598.22;;;15.31;100.00
21664;BME280;10993;52.510;13.456;2022-09-17T07:02:09;-26602.44;;;15.45;100.00
21664;BME280;10993;52.510;13.456;2022-09-17T07:07:10;-26595.28;;;15.22;100.00
21664;BME280;10993;52.510;13.456;2022-09-17T07:12:11;-26585.94;;;14.91;100.00
21664;BME280;10993;52.510;13.456;2022-09-17T07:17:11;-26585.16;;;14.88;100.00
21664;BME280;10993;52.510;13.456;2022-09-17T07:22:13;-26587.31;;;14.95;100.00
21664;BME280;10993;52.510;13.456;2022-09-17T07:27:13;-26587.00;;;14.94;100.00
21664;BME280;10993;52.510;13.456;2022-09-17T07:32:13;-26586.41;;;14.92;100.00
21664;BME280;10993;52.510;13.456;2022-09-17T07:37:16;-26593.72;;;15.16;100.00
21664;BME280;10993;52.510;13.456;2022-09-17T07:42:16;-26611.16;;;15.74;99.81
21664;BME280;10993;52.510;13.456;2022-09-17T07:47:16;-26617.84;;;15.96;97.79
21664;BME280;10993;52.510;13.456;2022-09-17T07:52:18;-26616.28;;;15.91;95.94
21664;BME280;10993;52.510;13.456;2022-09-17T07:57:19;-26619.56;;;16.02;95.15
21664;BME280;10993;52.510;13.456;2022-09-17T08:02:19;-26616.91;;;15.93;95.91
21664;BME280;10993;52.510;13.456;2022-09-17T08:07:21;-26611.31;;;15.75;95.91
21664;BME280;10993;52.510;13.456;2022-09-17T08:12:22;-26627.47;;;16.28;92.28
21664;BME280;10993;52.510;13.456;2022-09-17T08:17:22;-26625.00;;;16.20;91.22
21664;BME280;10993;52.510;13.456;2022-09-17T08:22:24;-26632.31;;;16.44;89.86
21664;BME280;10993;52.510;13.456;2022-09-17T08:27:24;-26655.28;;;17.21;84.42
21664;BME280;10993;52.510;13.456;2022-09-17T08:32:25;-26689.09;;;18.33;78.41
21664;BME280;10993;52.510;13.456;2022-09-17T08:37:27;-26768.53;;;20.98;65.41
21664;BME280;10993;52.510;13.456;2022-09-17T08:42:32;-26800.88;;;22.06;57.27
21664;BME280;10993;52.510;13.456;2022-09-17T08:47:38;-26754.66;;;20.51;61.32
21664;BME280;10993;52.510;13.456;2022-09-17T08:53:21;-26758.03;;;20.63;57.96
21664;BME280;10993;52.510;13.456;2022-09-17T08:58:49;-26809.97;;;22.37;51.72
21664;BME280;10993;52.510;13.456;2022-09-17T09:04:14;-26793.50;;;21.81;53.26
21664;BME280;10993;52.510;13.456;2022-09-17T09:09:24;-26823.34;;;22.81;48.78
21664;BME280;10993;52.510;13.456;2022-09-17T09:14:31;-26873.03;;;24.48;41.78
21664;BME280;10993;52.510;13.456;2022-09-17T09:19:40;-26904.56;;;25.55;40.16
21664;BME280;10993;52.510;13.456;2022-09-17T09:24:50;-26917.41;;;25.98;37.60
21664;BME280;10993;52.510;13.456;2022-09-17T09:30:01;-26891.72;;;25.11;39.51
21664;BME280;10993;52.510;13.456;2022-09-17T09:35:15;-26868.75;;;24.34;41.53
21664;BME280;10993;52.510;13.456;2022-09-17T09:40:27;-26815.19;;;22.54;43.73
21664;BME280;10993;52.510;13.456;2022-09-17T09:45:41;-26802.25;;;22.11;45.52
21664;BME280;10993;52.510;13.456;2022-09-17T09:50:49;-26783.63;;;21.48;47.57
21664;BME280;10993;52.510;13.456;2022-09-17T09:56:22;-26722.53;;;19.44;55.84
21664;BME280;10993;52.510;13.456;2022-09-17T10:01:26;-26704.44;;;18.84;60.24
21664;BME280;10993;52.510;13.456;2022-09-17T10:06:29;-26712.31;;;19.10;60.47
21664;BME280;10993;52.510;13.456;2022-09-17T10:11:32;-26751.56;;;20.41;57.82
21664;BME280;10993;52.510;13.456;2022-09-17T10:16:32;-26766.69;;;20.92;54.33
21664;BME280;10993;52.510;13.456;2022-09-17T10:21:36;-26802.41;;;22.11;48.14
21664;BME280;10993;52.510;13.456;2022-09-17T10:26:40;-26788.25;;;21.64;48.06
21664;BME280;10993;52.510;13.456;2022-09-17T10:31:47;-26848.38;;;23.65;42.30
21664;BME280;10993;52.510;13.456;2022-09-17T10:36:49;-26848.38;;;23.65;40.77
21664;BME280;10993;52.510;13.456;2022-09-17T10:41:55;-26791.34;;;21.74;47.79
21664;BME280;10993;52.510;13.456;2022-09-17T10:47:03;-26672.50;;;17.78;67.90
21664;BME280;10993;52.510;13.456;2022-09-17T10:52:07;-26667.38;;;17.61;72.14
21664;BME280;10993;52.510;13.456;2022-09-17T10:57:15;-26679.94;;;18.02;68.79
21664;BME280;10993;52.510;13.456;2022-09-17T11:02:37;-26698.69;;;18.65;63.66
21664;BME280;10993;52.510;13.456;2022-09-17T11:07:43;-26717.56;;;19.28;61.46
21664;BME280;10993;52.510;13.456;2022-09-17T11:13:08;-26751.56;;;20.41;54.80
21664;BME280;10993;52.510;13.456;2022-09-17T11:18:28;-26842.69;;;23.46;43.88
21664;BME280;10993;52.510;13.456;2022-09-17T11:23:45;-26836.84;;;23.27;43.28
21664;BME280;10993;52.510;13.456;2022-09-17T11:28:58;-26804.13;;;22.17;44.91
21664;BME280;10993;52.510;13.456;2022-09-17T11:34:19;-26767.00;;;20.93;44.64
21664;BME280;10993;52.510;13.456;2022-09-17T11:39:24;-26768.38;;;20.97;44.66
21664;BME280;10993;52.510;13.456;2022-09-17T11:44:31;-26731.34;;;19.74;48.65
21664;BME280;10993;52.510;13.456;2022-09-17T11:49:34;-26742.16;;;20.10;49.62
21664;BME280;10993;52.510;13.456;2022-09-17T11:54:39;-26726.06;;;19.56;50.17
21664;BME280;10993;52.510;13.456;2022-09-17T11:59:47;-26744.16;;;20.16;48.59
21664;BME280;10993;52.510;13.456;2022-09-17T12:04:56;-26766.38;;;20.91;47.77
21664;BME280;10993;52.510;13.456;2022-09-17T12:10:03;-26762.69;;;20.78;45.47
21664;BME280;10993;52.510;13.456;2022-09-17T12:15:14;-26760.97;;;20.73;45.85
21664;BME280;10993;52.510;13.456;2022-09-17T12:20:23;-26738.75;;;19.98;47.63
21664;BME280;10993;52.510;13.456;2022-09-17T12:25:31;-26720.06;;;19.36;48.21
21664;BME280;10993;52.510;13.456;2022-09-17T12:30:37;-26695.59;;;18.55;49.87
21664;BME280;10993;52.510;13.456;2022-09-17T12:35:55;-26705.66;;;18.88;50.25
21664;BME280;10993;52.510;13.456;2022-09-17T12:41:03;-26712.78;;;19.12;51.67
21664;BME280;10993;52.510;13.456;2022-09-17T12:46:19;-26706.28;;;18.90;51.81
21664;BME280;10993;52.510;13.456;2022-09-17T12:51:38;-26706.13;;;18.90;52.12
21664;BME280;10993;52.510;13.456;2022-09-17T12:56:49;-26705.50;;;18.88;52.55
21664;BME280;10993;52.510;13.456;2022-09-17T13:02:01;-26706.75;;;18.92;51.92
21664;BME280;10993;52.510;13.456;2022-09-17T13:07:25;-26694.97;;;18.52;51.99
21664;BME280;10993;52.510;13.456;2022-09-17T13:12:35;-26694.06;;;18.49;52.63
21664;BME280;10993;52.510;13.456;2022-09-17T13:17:44;-26681.34;;;18.07;49.97
21664;BME280;10993;52.510;13.456;2022-09-17T13:22:48;-26691.41;;;18.41;45.81
21664;BME280;10993;52.510;13.456;2022-09-17T13:27:50;-26667.06;;;17.60;44.90
21664;BME280;10993;52.510;13.456;2022-09-17T13:33:04;-26668.16;;;17.63;47.37
21664;BME280;10993;52.510;13.456;2022-09-17T13:38:04;-26666.47;;;17.58;49.75
21664;BME280;10993;52.510;13.456;2022-09-17T13:43:07;-26656.53;;;17.25;50.61
21664;BME280;10993;52.510;13.456;2022-09-17T13:48:10;-26660.72;;;17.39;51.56
21664;BME280;10993;52.510;13.456;2022-09-17T13:53:20;-26664.75;;;17.52;51.28
21664;BME280;10993;52.510;13.456;2022-09-17T13:58:27;-26670.19;;;17.70;48.56
21664;BME280;10993;52.510;13.456;2022-09-17T14:03:51;-26676.06;;;17.90;47.09
21664;BME280;10993;52.510;13.456;2022-09-17T14:08:52;-26676.69;;;17.92;48.12
21664;BME280;10993;52.510;13.456;2022-09-17T14:19:33;-26681.34;;;18.07;47.78
21664;BME280;10993;52.510;13.456;2022-09-17T14:24:45;-26678.72;;;17.98;47.33
21664;BME280;10993;52.510;13.456;2022-09-17T14:30:09;-26678.41;;;17.97;46.65
21664;BME280;10993;52.510;13.456;2022-09-17T14:35:19;-26675.13;;;17.86;46.72
21664;BME280;10993;52.510;13.456;2022-09-17T14:40:21;-26658.25;;;17.30;50.32
21664;BME280;10993;52.510;13.456;2022-09-17T14:45:26;-26653.28;;;17.14;52.33
21664;BME280;10993;52.510;13.456;2022-09-17T14:50:28;-26652.97;;;17.13;53.56
21664;BME280;10993;52.510;13.456;2022-09-17T14:55:30;-26645.50;;;16.88;55.56
21664;BME280;10993;52.510;13.456;2022-09-17T15:00:33;-26636.81;;;16.59;55.54
21664;BME280;10993;52.510;13.456;2022-09-17T15:05:36;-26640.84;;;16.73;55.23
21664;BME280;10993;52.510;13.456;2022-09-17T15:10:46;-26635.72;;;16.56;52.22
21664;BME280;10993;52.510;13.456;2022-09-17T15:15:53;-26625.47;;;16.22;51.85
21664;BME280;10993;52.510;13.456;2022-09-17T15:20:57;-26619.88;;;16.03;53.47
21664;BME280;10993;52.510;13.456;2022-09-17T15:26:00;-26613.50;;;15.82;54.90
21664;BME280;10993;52.510;13.456;2022-09-17T15:31:04;-26607.72;;;15.63;55.25
21664;BME280;10993;52.510;13.456;2022-09-17T15:36:16;-26600.25;;;15.38;55.76
21664;BME280;10993;52.510;13.456;2022-09-17T15:41:24;-26593.72;;;15.16;56.82
21664;BME280;10993;52.510;13.456;2022-09-17T15:46:27;-26591.22;;;15.08;57.32
21664;BME280;10993;52.510;13.456;2022-09-17T15:51:33;-26588.09;;;14.98;58.72
21664;BME280;10993;52.510;13.456;2022-09-17T15:56:35;-26581.88;;;14.77;60.25
21664;BME280;10993;52.510;13.456;2022-09-17T16:01:51;-26578.75;;;14.67;60.28
21664;BME280;10993;52.510;13.456;2022-09-17T16:06:56;-26573.00;;;14.48;60.09
21664;BME280;10993;52.510;13.456;2022-09-17T16:11:57;-26572.22;;;14.45;61.00
21664;BME280;10993;52.510;13.456;2022-09-17T16:16:57;-26564.56;;;14.20;61.80
21664;BME280;10993;52.510;13.456;2022-09-17T16:22:00;-26560.34;;;14.06;62.15
21664;BME280;10993;52.510;13.456;2022-09-17T16:27:00;-26549.59;;;13.70;64.05
21664;BME280;10993;52.510;13.456;2022-09-17T16:32:00;-26548.34;;;13.66;64.53
21664;BME280;10993;52.510;13.456;2022-09-17T16:37:02;-26546.16;;;13.59;64.67
21664;BME280;10993;52.510;13.456;2022-09-17T16:42:03;-26545.84;;;13.58;65.59
21664;BME280;10993;52.510;13.456;2022-09-17T16:47:03;-26545.84;;;13.58;66.44
21664;BME280;10993;52.510;13.456;2022-09-17T16:52:05;-26549.44;;;13.70;66.69
21664;BME280;10993;52.510;13.456;2022-09-17T16:57:05;-26551.00;;;13.75;67.62
21664;BME280;10993;52.510;13.456;2022-09-17T17:02:06;-26550.06;;;13.72;68.62
21664;BME280;10993;52.510;13.456;2022-09-17T17:07:08;-26553.94;;;13.85;68.42
21664;BME280;10993;52.510;13.456;2022-09-17T17:12:08;-26549.75;;;13.71;68.35
21664;BME280;10993;52.510;13.456;2022-09-17T17:17:08;-26557.69;;;13.97;68.78
21664;BME280;10993;52.510;13.456;2022-09-17T17:22:10;-26556.28;;;13.93;67.94
21664;BME280;10993;52.510;13.456;2022-09-17T17:27:11;-26547.88;;;13.65;68.67
21664;BME280;10993;52.510;13.456;2022-09-17T17:32:13;-26549.91;;;13.72;68.78
21664;BME280;10993;52.510;13.456;2022-09-17T17:37:15;-26552.38;;;13.80;69.21
21664;BME280;10993;52.510;13.456;2022-09-17T17:42:15;-26551.91;;;13.78;69.53
21664;BME280;10993;52.510;13.456;2022-09-17T17:47:15;-26545.22;;;13.56;70.16
21664;BME280;10993;52.510;13.456;2022-09-17T17:52:17;-26550.38;;;13.73;70.70
21664;BME280;10993;52.510;13.456;2022-09-17T17:57:18;-26543.19;;;13.49;72.60
21664;BME280;10993;52.510;13.456;2022-09-17T18:02:18;-26539.91;;;13.39;73.97
21664;BME280;10993;52.510;13.456;2022-09-17T18:07:20;-26541.31;;;13.43;75.55
21664;BME280;10993;52.510;13.456;2022-09-17T18:12:20;-26538.50;;;13.34;78.51
21664;BME280;10993;52.510;13.456;2022-09-17T18:17:20;-26528.97;;;13.02;81.64
21664;BME280;10993;52.510;13.456;2022-09-17T18:22:22;-26533.97;;;13.19;83.20
21664;BME280;10993;52.510;13.456;2022-09-17T18:27:23;-26527.25;;;12.97;84.26
21664;BME280;10993;52.510;13.456;2022-09-17T18:32:23;-26526.94;;;12.96;85.22
21664;BME280;10993;52.510;13.456;2022-09-17T18:37:27;-26522.41;;;12.81;86.47
21664;BME280;10993;52.510;13.456;2022-09-17T18:42:27;-26521.63;;;12.78;86.91
21664;BME280;10993;52.510;13.456;2022-09-17T18:47:28;-26518.31;;;12.67;88.95
21664;BME280;10993;52.510;13.456;2022-09-17T18:52:29;-26515.97;;;12.60;89.21
21664;BME280;10993;52.510;13.456;2022-09-17T18:57:30;-26502.53;;;12.15;93.53
21664;BME280;10993;52.510;13.456;2022-09-17T19:02:31;-26500.34;;;12.08;94.66
21664;BME280;10993;52.510;13.456;2022-09-17T19:07:33;-26501.59;;;12.12;95.84
21664;BME280;10993;52.510;13.456;2022-09-17T19:12:34;-26506.44;;;12.28;96.79
21664;BME280;10993;52.510;13.456;2022-09-17T19:17:34;-26513.94;;;12.53;95.62
21664;BME280;10993;52.510;13.456;2022-09-17T19:22:36;-26519.13;;;12.70;95.82
21664;BME280;10993;52.510;13.456;2022-09-17T19:27:36;-26522.09;;;12.80;96.13
21664;BME280;10993;52.510;13.456;2022-09-17T19:32:36;-26524.59;;;12.88;95.71
21664;BME280;10993;52.510;13.456;2022-09-17T19:37:38;-26514.72;;;12.56;98.42
21664;BME280;10993;52.510;13.456;2022-09-17T19:42:39;-26517.53;;;12.65;98.84
21664;BME280;10993;52.510;13.456;2022-09-17T19:47:39;-26522.09;;;12.80;98.62
21664;BME280;10993;52.510;13.456;2022-09-17T19:52:41;-26514.72;;;12.56;98.90
21664;BME280;10993;52.510;13.456;2022-09-17T19:57:41;-26521.28;;;12.77;99.03
21664;BME280;10993;52.510;13.456;2022-09-17T20:02:42;-26521.94;;;12.79;100.00
21664;BME280;10993;52.510;13.456;2022-09-17T20:07:43;-26517.22;;;12.64;100.00
21664;BME280;10993;52.510;13.456;2022-09-17T20:12:44;-26520.38;;;12.74;100.00
21664;BME280;10993;52.510;13.456;2022-09-17T20:17:44;-26525.69;;;12.92;100.00
21664;BME280;10993;52.510;13.456;2022-09-17T20:22:46;-26521.63;;;12.78;100.00
21664;BME280;10993;52.510;13.456;2022-09-17T20:27:47;-26519.56;;;12.72;100.00
21664;BME280;10993;52.510;13.456;2022-09-17T20:32:48;-26523.34;;;12.84;100.00
21664;BME280;10993;52.510;13.456;2022-09-17T20:37:49;-26520.38;;;12.74;100.00
21664;BME280;10993;52.510;13.456;2022-09-17T20:42:50;-26510.66;;;12.42;100.00
21664;BME280;10993;52.510;13.456;2022-09-17T20:47:50;-26516.13;;;12.60;100.00
21664;BME280;10993;52.510;13.456;2022-09-17T20:52:52;-26516.75;;;12.62;100.00
21664;BME280;10993;52.510;13.456;2022-09-17T20:57:52;-26515.34;;;12.58;100.00
21664;BME280;10993;52.510;13.456;2022-09-17T21:02:53;-26515.03;;;12.57;100.00
21664;BME280;10993;52.510;13.456;2022-09-17T21:07:56;-26520.03;;;12.73;100.00
21664;BME280;10993;52.510;13.456;2022-09-17T21:12:57;-26520.03;;;12.73;100.00
21664;BME280;10993;52.510;13.456;2022-09-17T21:17:58;-26521.28;;;12.77;100.00
21664;BME280;10993;52.510;13.456;2022-09-17T21:23:00;-26523.66;;;12.85;100.00
21664;BME280;10993;52.510;13.456;2022-09-17T21:28:00;-26521.47;;;12.78;100.00
21664;BME280;10993;52.510;13.456;2022-09-17T21:33:01;-26526.63;;;12.95;100.00
21664;BME280;10993;52.510;13.456;2022-09-17T21:38:03;-26526.16;;;12.93;100.00
21664;BME280;10993;52.510;13.456;2022-09-17T21:43:03;-26509.41;;;12.38;100.00
21664;BME280;10993;52.510;13.456;2022-09-17T21:48:05;-26516.28;;;12.61;100.00
21664;BME280;10993;52.510;13.456;2022-09-17T21:53:07;-26514.72;;;12.56;100.00
21664;BME280;10993;52.510;13.456;2022-09-17T21:58:07;-26522.09;;;12.80;100.00
21664;BME280;10993;52.510;13.456;2022-09-17T22:03:09;-26524.59;;;12.88;100.00
21664;BME280;10993;52.510;13.456;2022-09-17T22:08:10;-26522.09;;;12.80;100.00
21664;BME280;10993;52.510;13.456;2022-09-17T22:13:11;-26519.91;;;12.73;100.00
21664;BME280;10993;52.510;13.456;2022-09-17T22:18:11;-26525.69;;;12.92;100.00
21664;BME280;10993;52.510;13.456;2022-09-17T22:23:13;-26521.94;;;12.79;100.00
21664;BME280;10993;52.510;13.456;2022-09-17T22:28:14;-26516.28;;;12.61;100.00
21664;BME280;10993;52.510;13.456;2022-09-17T22:33:15;-26518.47;;;12.68;100.00
21664;BME280;10993;52.510;13.456;2022-09-17T22:38:16;-26520.97;;;12.76;100.00
21664;BME280;10993;52.510;13.456;2022-09-17T22:43:17;-26521.94;;;12.79;100.00
21664;BME280;10993;52.510;13.456;2022-09-17T22:48:17;-26521.94;;;12.79;100.00
21664;BME280;10993;52.510;13.456;2022-09-17T22:53:19;-26524.75;;;12.89;100.00
21664;BME280;10993;52.510;13.456;2022-09-17T22:58:19;-26521.63;;;12.78;100.00
21664;BME280;10993;52.510;13.456;2022-09-17T23:03:25;-26527.56;;;12.98;100.00
21664;BME280;10993;52.510;13.456;2022-09-17T23:08:27;-26522.25;;;12.80;100.00
21664;BME280;10993;52.510;13.456;2022-09-17T23:13:28;-26523.50;;;12.84;100.00
21664;BME280;10993;52.510;13.456;2022-09-17T23:18:29;-26515.81;;;12.59;100.00
21664;BME280;10993;52.510;13.456;2022-09-17T23:23:32;-26524.44;;;12.88;100.00
21664;BME280;10993;52.510;13.456;2022-09-17T23:28:33;-26519.25;;;12.70;100.00
21664;BME280;10993;52.510;13.456;2022-09-17T23:33:34;-26527.25;;;12.97;100.00
21664;BME280;10993;52.510;13.456;2022-09-17T23:38:36;-26524.75;;;12.89;100.00
21664;BME280;10993;52.510;13.456;2022-09-17T23:43:36;-26525.84;;;12.92;100.00
21664;BME280;10993;52.510;13.456;2022-09-17T23:48:37;-26523.50;;;12.84;100.00
21664;BME280;10993;52.510;13.456;2022-09-17T23:53:39;-26520.97;;;12.76;100.00
21664;BME280;10993;52.510;13.456;2022-09-17T23:58:39;-26518.66;;;12.68;100.00
